Time;durP1;ratioP1;P1;durP2;ratioP2;P2;SDS_P1;SDS_P2;PMS_P1;PMS_P2;Temp;Humidity;BMP_temperature;BMP_pressure;BME280_temperature;BME280_humidity;BME280_pressure;Samples;Min_cycle;Max_cycle;Signal;HPM_P1;HPM_P2
2022/07/30 00:00:28;;;;;;;8.97;4.97;;;;;;;24.88;54.53;97098.47;6266667;22;20217;-74
2022/07/30 00:02:55;;;;;;;7.37;5.87;;;;;;;24.72;55.01;97100.16;6269473;22;20162;-73
2022/07/30 00:05:22;;;;;;;5.50;5.00;;;;;;;24.41;55.89;97098.94;6269640;22;20163;-73
2022/07/30 00:07:49;;;;;;;5.80;5.30;;;;;;;24.10;57.16;97104.66;6268532;22;20174;-72
2022/07/30 00:10:16;;;;;;;6.73;5.40;;;;;;;24.01;57.77;97091.44;6269809;22;20418;-72
2022/07/30 00:12:43;;;;;;;7.67;6.17;;;;;;;23.97;58.15;97096.22;6267938;22;20613;-72
2022/07/30 00:15:10;;;;;;;7.00;5.97;;;;;;;24.12;57.94;97099.19;6269812;22;20169;-72
2022/07/30 00:17:37;;;;;;;7.47;5.60;;;;;;;24.07;58.88;97102.28;6266564;22;20193;-72
2022/07/30 00:20:05;;;;;;;7.10;5.97;;;;;;;24.18;58.54;97091.50;6269627;22;20250;-73
2022/07/30 00:22:32;;;;;;;7.60;6.27;;;;;;;24.23;58.72;97088.38;6269485;22;20190;-72
2022/07/30 00:24:59;;;;;;;7.00;6.13;;;;;;;23.98;59.25;97100.53;6268620;22;20185;-71
2022/07/30 00:27:27;;;;;;;7.60;5.77;;;;;;;23.66;60.08;97094.91;6269499;22;20277;-71
2022/07/30 00:29:54;;;;;;;8.87;6.00;;;;;;;23.42;61.09;97090.19;6268102;22;20175;-71
2022/07/30 00:32:21;;;;;;;9.07;6.13;;;;;;;23.51;61.10;97092.94;6294022;22;20165;-71
2022/07/30 00:34:48;;;;;;;7.60;5.40;;;;;;;23.59;60.94;97093.03;6293926;22;20165;-71
2022/07/30 00:37:15;;;;;;;8.93;6.23;;;;;;;23.45;61.17;97094.38;6244445;22;20594;-71
2022/07/30 00:39:42;;;;;;;7.13;5.70;;;;;;;23.42;61.03;97097.28;6270750;22;20168;-73
2022/07/30 00:42:09;;;;;;;8.50;6.17;;;;;;;23.22;61.38;97085.13;6270654;22;20160;-73
2022/07/30 00:44:36;;;;;;;6.30;5.73;;;;;;;23.00;62.31;97093.44;6269719;22;20678;-73
2022/07/30 00:47:06;;;;;;;7.60;6.80;;;;;;;22.91;62.61;97075.81;6270216;22;20605;-71
2022/07/30 00:49:34;;;;;;;7.53;6.63;;;;;;;23.01;62.51;97073.97;6271814;22;20170;-71
2022/07/30 00:52:00;;;;;;;7.10;6.00;;;;;;;23.19;62.46;97088.06;6268102;22;20227;-72
2022/07/30 00:54:28;;;;;;;9.60;6.60;;;;;;;23.31;61.49;97100.94;6244543;22;20171;-72
2022/07/30 00:56:58;;;;;;;8.23;6.40;;;;;;;22.97;62.51;97088.44;6270921;22;20253;-73
2022/07/30 00:59:27;;;;;;;7.00;6.30;;;;;;;22.89;62.94;97097.09;6243908;22;20162;-73
2022/07/30 01:01:54;;;;;;;7.50;6.70;;;;;;;22.69;63.54;97079.63;6269816;22;20167;-72
2022/07/30 01:04:21;;;;;;;12.17;7.00;;;;;;;22.67;63.86;97090.34;6268139;22;20175;-73
2022/07/30 01:06:48;;;;;;;7.80;7.00;;;;;;;22.54;64.26;97075.78;6271236;22;20181;-73
2022/07/30 01:09:15;;;;;;;9.50;6.60;;;;;;;22.56;65.08;97084.38;6269663;22;20164;-72
2022/07/30 01:11:43;;;;;;;7.63;6.87;;;;;;;22.52;65.23;97081.16;6271412;22;20702;-72
2022/07/30 01:14:11;;;;;;;9.00;7.33;;;;;;;22.33;66.20;97075.94;6270341;22;20173;-71
2022/07/30 01:16:41;;;;;;;10.63;8.13;;;;;;;21.99;66.67;97047.53;6269504;22;20202;-71
2022/07/30 01:22:27;;;;;;;8.07;7.13;;;;;;;22.29;65.98;97076.38;6268159;22;20630;-72
2022/07/30 01:25:02;;;;;;;8.70;7.80;;;;;;;22.47;65.70;97077.31;6269766;22;20165;-71
2022/07/30 01:27:43;;;;;;;9.47;8.33;;;;;;;22.63;65.26;97081.03;6269041;22;20560;-72
2022/07/30 01:30:13;;;;;;;10.37;8.17;;;;;;;22.56;65.00;97076.47;6268230;22;20311;-72
2022/07/30 01:32:42;;;;;;;9.73;7.97;;;;;;;22.53;65.11;97061.72;6271157;22;20177;-72
2022/07/30 01:35:11;;;;;;;9.90;8.80;;;;;;;22.48;65.23;97069.22;6269610;22;20166;-74
2022/07/30 01:37:39;;;;;;;11.67;8.50;;;;;;;22.34;65.75;97067.03;6295426;22;20204;-72
2022/07/30 01:40:08;;;;;;;10.07;8.63;;;;;;;22.11;66.80;97068.34;6268185;22;20523;-71
2022/07/30 01:42:38;;;;;;;8.60;7.80;;;;;;;22.02;67.05;97066.53;6268952;22;20263;-71
2022/07/30 01:45:07;;;;;;;8.27;7.47;;;;;;;22.12;66.78;97059.44;6270965;22;20169;-72
2022/07/30 01:47:37;;;;;;;9.27;7.63;;;;;;;22.23;66.35;97056.66;6293561;22;20164;-72
2022/07/30 01:50:12;;;;;;;9.93;7.60;;;;;;;22.34;65.56;97051.22;6269556;22;20652;-72
2022/07/30 01:52:44;;;;;;;8.57;7.17;;;;;;;22.70;64.91;97052.25;6267580;22;20169;-72
2022/07/30 01:55:20;;;;;;;7.63;6.93;;;;;;;22.84;64.34;97059.72;6269408;22;20560;-72
2022/07/30 01:57:48;;;;;;;8.20;7.40;;;;;;;22.95;63.59;97059.53;6294858;22;20205;-72
2022/07/30 02:00:16;;;;;;;8.77;7.10;;;;;;;22.98;63.55;97053.13;6268066;22;20641;-71
2022/07/30 02:02:44;;;;;;;11.23;7.67;;;;;;;22.94;64.01;97057.03;6270904;22;20171;-72
2022/07/30 02:05:13;;;;;;;8.10;7.07;;;;;;;23.04;63.70;97055.19;6241660;22;20204;-71
2022/07/30 02:07:47;;;;;;;10.50;7.43;;;;;;;23.18;63.30;97055.53;6294874;22;20171;-72
2022/07/30 02:10:41;;;;;;;7.90;6.90;;;;;;;23.22;62.71;97048.97;6267655;22;20167;-71
2022/07/30 02:13:18;;;;;;;8.30;7.20;;;;;;;23.29;62.90;97042.09;6242493;22;20175;-71
2022/07/30 02:16:01;;;;;;;7.57;6.80;;;;;;;23.32;63.27;97041.00;6243863;22;20231;-70
2022/07/30 02:18:39;;;;;;;7.97;6.77;;;;;;;23.29;62.93;97044.75;6268953;22;20663;-71
2022/07/30 02:21:09;;;;;;;8.77;6.60;;;;;;;23.33;63.17;97045.31;6269125;22;20528;-72
2022/07/30 02:23:42;;;;;;;8.43;7.60;;;;;;;23.32;62.84;97046.31;6268330;22;20163;-70
2022/07/30 02:26:17;;;;;;;8.70;6.80;;;;;;;23.33;62.88;97047.94;6293749;22;20180;-70
2022/07/30 02:28:48;;;;;;;9.20;6.93;;;;;;;23.28;62.86;97042.25;6294818;22;20226;-70
2022/07/30 02:31:21;;;;;;;8.57;6.77;;;;;;;23.22;62.63;97042.84;6292977;22;20169;-70
2022/07/30 02:33:52;;;;;;;7.53;6.83;;;;;;;23.24;62.67;97048.81;6294666;22;20162;-69
2022/07/30 02:36:20;;;;;;;9.50;7.37;;;;;;;23.09;63.05;97051.13;6268808;22;20192;-70
2022/07/30 02:38:49;;;;;;;9.50;7.50;;;;;;;22.07;65.86;97051.09;6270228;22;20168;-69
2022/07/30 02:41:21;;;;;;;8.40;7.57;;;;;;;21.56;67.93;97063.69;6294320;22;20618;-69
2022/07/30 02:43:51;;;;;;;9.00;7.83;;;;;;;21.31;69.18;97048.44;6267202;22;20640;-71
2022/07/30 02:46:21;;;;;;;8.77;7.43;;;;;;;21.30;69.34;97044.09;6268759;22;20236;-69
2022/07/30 02:49:22;;;;;;;9.07;7.30;;;;;;;21.30;69.59;97047.59;6234033;22;20227;-70
2022/07/30 02:51:50;;;;;;;8.90;7.67;;;;;;;21.33;69.59;97057.03;6268404;22;20255;-71
2022/07/30 02:54:19;;;;;;;9.17;7.73;;;;;;;21.25;69.33;97043.66;6270225;22;20164;-69
2022/07/30 02:56:48;;;;;;;8.67;7.80;;;;;;;21.53;68.84;97050.81;6266606;22;20582;-70
2022/07/30 02:59:18;;;;;;;10.07;8.33;;;;;;;21.67;68.26;97045.97;6294947;22;20168;-70
2022/07/30 03:01:47;;;;;;;7.87;7.07;;;;;;;21.65;68.47;97057.63;6266841;22;20244;-70
2022/07/30 03:04:18;;;;;;;10.57;7.77;;;;;;;21.62;68.52;97052.59;6269006;22;20787;-71
2022/07/30 03:06:47;;;;;;;9.63;8.23;;;;;;;21.39;69.32;97052.03;6269324;22;20169;-71
2022/07/30 03:09:16;;;;;;;11.77;7.47;;;;;;;21.32;69.53;97055.34;6269691;22;20227;-72
2022/07/30 03:11:44;;;;;;;8.73;7.57;;;;;;;21.20;70.25;97064.34;6268844;22;20231;-71
2022/07/30 03:14:11;;;;;;;8.40;7.60;;;;;;;21.00;70.67;97039.69;6266832;22;20170;-69
2022/07/30 03:16:42;;;;;;;9.10;8.20;;;;;;;21.01;71.10;97055.38;6294503;22;20516;-69
2022/07/30 03:19:12;;;;;;;10.07;6.80;;;;;;;20.98;71.22;97047.72;6268558;22;20157;-69
2022/07/30 03:21:40;;;;;;;17.80;7.50;;;;;;;20.79;71.82;97036.31;6270196;22;20166;-69
2022/07/30 03:24:10;;;;;;;10.50;7.27;;;;;;;20.87;71.72;97045.22;6267629;22;20523;-69
2022/07/30 03:26:38;;;;;;;9.17;7.63;;;;;;;20.77;71.70;97046.97;6267603;22;20188;-69
2022/07/30 03:29:07;;;;;;;10.20;7.60;;;;;;;20.71;72.04;97044.84;6268440;22;20161;-70
2022/07/30 03:31:39;;;;;;;8.23;7.23;;;;;;;21.00;71.30;97051.06;6266519;22;20165;-69
2022/07/30 03:34:07;;;;;;;10.83;8.00;;;;;;;21.08;70.56;97053.91;6268733;22;20170;-69
2022/07/30 03:36:39;;;;;;;14.17;8.10;;;;;;;21.13;70.15;97061.41;6266312;22;20439;-69
2022/07/30 03:39:07;;;;;;;8.87;7.70;;;;;;;21.02;70.13;97049.16;6268345;22;20528;-70
2022/07/30 03:41:38;;;;;;;10.20;8.77;;;;;;;21.15;69.55;97059.47;6267416;22;20534;-72
2022/07/30 03:44:10;;;;;;;12.37;8.80;;;;;;;21.33;68.48;97057.84;6241674;22;20565;-71
2022/07/30 03:46:39;;;;;;;9.13;8.23;;;;;;;21.59;67.71;97042.34;6294231;22;20239;-70
2022/07/30 03:49:08;;;;;;;8.90;8.00;;;;;;;22.31;65.65;97056.78;6291995;22;20170;-71
2022/07/30 03:51:40;;;;;;;8.10;7.10;;;;;;;22.58;64.50;97056.91;6268122;22;20193;-71
2022/07/30 03:54:10;;;;;;;8.03;7.23;;;;;;;22.81;63.19;97059.19;6266527;22;20618;-70
2022/07/30 03:56:40;;;;;;;8.63;7.53;;;;;;;23.21;62.20;97062.31;6269407;22;20168;-70
2022/07/30 03:59:15;;;;;;;10.07;7.57;;;;;;;23.55;61.12;97057.28;6268307;22;20174;-70
2022/07/30 04:01:43;;;;;;;9.37;7.73;;;;;;;23.54;60.57;97050.31;6266421;22;20163;-70
2022/07/30 04:04:30;;;;;;;9.73;8.00;;;;;;;23.26;61.23;97060.91;6267821;22;20521;-70
2022/07/30 04:06:58;;;;;;;10.93;8.93;;;;;;;23.36;61.52;97055.59;6266782;22;20175;-70
2022/07/30 04:09:25;;;;;;;9.13;7.33;;;;;;;23.72;60.38;97057.28;6270175;22;20176;-71
2022/07/30 04:11:53;;;;;;;10.13;8.43;;;;;;;24.29;58.77;97055.16;6295300;22;20170;-71
2022/07/30 04:14:25;;;;;;;10.63;8.73;;;;;;;24.04;59.14;97049.69;6270292;22;20172;-70
2022/07/30 04:17:00;;;;;;;11.03;9.93;;;;;;;23.45;60.81;97049.44;6243783;22;20170;-69
2022/07/30 04:19:34;;;;;;;12.80;11.17;;;;;;;23.40;61.42;97051.69;6268255;22;20176;-70
2022/07/30 04:22:03;;;;;;;13.77;11.20;;;;;;;23.84;60.17;97050.81;6270126;22;20166;-72
2022/07/30 04:24:33;;;;;;;12.40;11.17;;;;;;;24.38;58.70;97054.25;6268792;22;20172;-72
2022/07/30 04:27:02;;;;;;;14.57;12.23;;;;;;;24.77;57.71;97056.34;6243908;22;20205;-73
2022/07/30 04:29:30;;;;;;;19.20;12.17;;;;;;;25.04;56.52;97058.78;6270154;22;20174;-73
2022/07/30 04:31:57;;;;;;;10.83;9.73;;;;;;;25.30;56.45;97048.16;6270053;22;20242;-72
2022/07/30 04:34:47;;;;;;;10.87;9.77;;;;;;;25.33;54.82;97050.47;6271543;22;20597;-73
2022/07/30 04:37:24;;;;;;;14.00;9.40;;;;;;;25.00;56.29;97051.31;6267993;22;20278;-72
2022/07/30 04:39:53;;;;;;;12.43;9.30;;;;;;;24.88;55.82;97049.94;6271334;22;20183;-71
2022/07/30 04:42:21;;;;;;;11.57;8.57;;;;;;;25.38;55.61;97050.81;6269301;22;20167;-71
2022/07/30 04:44:58;;;;;;;8.13;7.30;;;;;;;25.71;54.35;97060.56;6268236;22;20229;-73
2022/07/30 04:47:30;;;;;;;9.03;7.93;;;;;;;25.81;53.65;97044.47;6270166;22;20167;-71
2022/07/30 04:50:26;;;;;;;10.20;7.60;;;;;;;26.00;54.08;97048.63;6222475;22;20179;-71
2022/07/30 04:52:55;;;;;;;8.37;7.53;;;;;;;25.46;54.00;97050.03;6269196;22;20405;-71
2022/07/30 04:55:27;;;;;;;9.87;8.27;;;;;;;24.76;56.44;97045.91;6295385;22;20167;-70
2022/07/30 04:57:56;;;;;;;9.10;8.13;;;;;;;24.49;57.17;97046.03;6267817;22;20226;-71
2022/07/30 05:00:23;;;;;;;8.43;7.60;;;;;;;24.59;56.83;97037.00;6271231;22;20650;-71
2022/07/30 05:02:54;;;;;;;8.90;8.03;;;;;;;24.62;56.96;97047.31;6267534;22;20170;-71
2022/07/30 05:05:22;;;;;;;10.67;8.07;;;;;;;24.70;57.03;97041.22;6295321;22;20174;-70
2022/07/30 05:07:50;;;;;;;8.90;8.00;;;;;;;24.39;57.89;97054.09;6268112;22;20170;-71
2022/07/30 05:10:18;;;;;;;10.70;7.93;;;;;;;24.81;56.82;97046.28;6294632;22;20163;-71
2022/07/30 05:12:46;;;;;;;9.07;7.90;;;;;;;25.33;56.17;97061.06;6269376;22;20163;-71
2022/07/30 05:15:16;;;;;;;9.13;8.00;;;;;;;25.97;53.75;97059.56;6242090;22;20199;-70
2022/07/30 05:17:44;;;;;;;8.43;7.63;;;;;;;26.18;53.27;97044.00;6269510;22;20285;-70
2022/07/30 05:20:13;;;;;;;10.47;8.30;;;;;;;25.90;53.05;97059.41;6269203;22;20243;-70
2022/07/30 05:23:00;;;;;;;12.53;8.27;;;;;;;25.96;53.01;97066.72;6269138;22;20172;-72
2022/07/30 05:25:27;;;;;;;8.50;7.70;;;;;;;26.05;52.56;97055.09;6294044;22;20165;-70
2022/07/30 05:28:05;;;;;;;10.10;8.03;;;;;;;26.02;52.44;97059.91;6293104;22;20222;-72
2022/07/30 05:30:34;;;;;;;10.80;8.43;;;;;;;26.38;52.35;97055.94;6294602;22;20590;-71
2022/07/30 05:33:02;;;;;;;8.33;7.53;;;;;;;26.74;51.65;97065.25;6241853;22;20606;-71
2022/07/30 05:35:42;;;;;;;11.50;7.30;;;;;;;27.09;50.20;97067.47;6268853;22;20558;-72
2022/07/30 05:38:09;;;;;;;8.23;7.13;;;;;;;27.44;48.85;97060.88;6267597;22;20193;-72
2022/07/30 05:40:49;;;;;;;7.83;7.13;;;;;;;27.65;49.03;97062.91;6293600;22;20165;-71
2022/07/30 05:43:35;;;;;;;7.80;7.10;;;;;;;27.36;48.64;97066.22;6270496;22;20165;-72
2022/07/30 05:46:02;;;;;;;10.20;7.17;;;;;;;27.50;48.21;97065.50;6266947;22;20161;-71
2022/07/30 05:48:30;;;;;;;7.27;6.57;;;;;;;27.28;49.20;97067.06;6268724;22;20164;-72
2022/07/30 05:50:59;;;;;;;10.90;7.40;;;;;;;27.08;49.28;97071.13;6293172;22;20188;-71
2022/07/30 05:53:26;;;;;;;10.43;7.70;;;;;;;27.15;49.51;97074.75;6294022;22;20540;-72
2022/07/30 05:56:02;;;;;;;8.67;6.90;;;;;;;27.16;49.73;97076.41;6270021;22;20235;-71
2022/07/30 05:58:53;;;;;;;9.40;7.20;;;;;;;27.07;49.97;97065.97;6266662;22;20203;-73
2022/07/30 06:01:37;;;;;;;8.30;7.50;;;;;;;27.06;50.57;97074.97;6268485;22;20168;-75
2022/07/30 06:04:12;;;;;;;9.20;7.20;;;;;;;27.49;48.88;97063.00;6241957;22;20191;-73
2022/07/30 06:06:47;;;;;;;10.00;6.93;;;;;;;27.70;48.25;97065.88;6242818;22;20169;-72
2022/07/30 06:09:14;;;;;;;8.30;6.87;;;;;;;28.19;47.12;97065.38;6268138;22;20508;-72
2022/07/30 06:11:41;;;;;;;9.83;7.90;;;;;;;28.39;45.76;97063.06;6241110;22;20203;-72
2022/07/30 06:14:08;;;;;;;8.57;6.37;;;;;;;28.64;45.00;97059.19;6270366;22;20227;-72
2022/07/30 06:16:36;;;;;;;10.07;6.53;;;;;;;28.75;43.81;97064.06;6266861;22;20183;-71
2022/07/30 06:19:03;;;;;;;6.30;5.70;;;;;;;28.74;44.25;97054.44;6268293;22;20192;-73
2022/07/30 06:21:43;;;;;;;7.97;6.40;;;;;;;28.94;43.64;97060.88;6267887;22;20212;-73
2022/07/30 06:24:30;;;;;;;7.60;6.37;;;;;;;29.00;43.32;97058.50;6240827;22;20179;-72
2022/07/30 06:27:12;;;;;;;7.13;6.13;;;;;;;28.77;44.15;97063.91;6269730;22;20680;-71
2022/07/30 06:29:39;;;;;;;7.57;6.80;;;;;;;28.90;42.96;97056.91;6265896;22;20483;-71
2022/07/30 06:32:07;;;;;;;8.13;7.30;;;;;;;29.26;43.02;97053.53;6267430;22;20172;-71
2022/07/30 06:34:34;;;;;;;6.83;6.20;;;;;;;29.45;42.44;97044.97;6267110;22;20161;-71
2022/07/30 06:37:02;;;;;;;11.50;6.50;;;;;;;29.55;42.56;97045.47;6292442;22;20578;-71
2022/07/30 06:39:32;;;;;;;8.00;6.00;;;;;;;29.73;41.53;97048.59;6243226;22;20291;-71
2022/07/30 06:42:20;;;;;;;8.50;6.10;;;;;;;29.89;40.96;97050.19;6266103;22;20574;-71
2022/07/30 06:45:07;;;;;;;9.27;6.73;;;;;;;30.00;40.44;97052.34;6269310;22;20176;-72
2022/07/30 06:48:10;;;;;;;6.50;5.60;;;;;;;29.61;40.84;97048.19;6205377;23;20252;-70
2022/07/30 06:50:37;;;;;;;6.47;5.70;;;;;;;29.37;41.80;97045.03;6254758;22;20261;-70
2022/07/30 06:53:05;;;;;;;6.80;6.10;;;;;;;28.96;41.65;97045.50;6267403;22;20192;-70
2022/07/30 06:55:52;;;;;;;6.83;5.73;;;;;;;29.06;42.09;97047.09;6264790;22;20172;-71
2022/07/30 06:58:31;;;;;;;11.77;6.07;;;;;;;29.44;41.25;97048.63;6267278;22;20195;-72
2022/07/30 07:01:22;;;;;;;6.03;4.30;;;;;;;29.78;39.80;97035.47;6269644;22;20161;-71
2022/07/30 07:03:51;;;;;;;6.83;6.20;;;;;;;30.15;39.49;97043.25;6266066;22;20515;-71
2022/07/30 07:06:18;;;;;;;5.80;5.13;;;;;;;30.13;39.56;97037.25;6242489;22;20179;-69
2022/07/30 07:08:45;;;;;;;6.20;5.60;;;;;;;30.01;39.46;97045.97;6268020;22;20160;-73
2022/07/30 07:11:16;;;;;;;6.73;5.03;;;;;;;30.00;39.24;97044.34;6267825;22;20161;-71
2022/07/30 07:13:50;;;;;;;8.17;5.17;;;;;;;30.14;39.14;97030.09;6241658;22;20204;-71
2022/07/30 07:16:25;;;;;;;7.27;5.03;;;;;;;30.28;38.96;97024.66;6240150;22;20570;-70
2022/07/30 07:18:54;;;;;;;8.23;6.20;;;;;;;30.09;39.18;97030.66;6267636;22;20207;-72
2022/07/30 07:21:22;;;;;;;7.23;5.37;;;;;;;29.91;38.68;96990.22;6265904;22;20186;-72
2022/07/30 07:23:52;;;;;;;6.73;5.40;;;;;;;30.17;38.39;97024.38;6267444;22;20466;-71
2022/07/30 07:26:48;;;;;;;11.07;6.30;;;;;;;30.06;36.99;97020.38;6248885;22;20291;-71
2022/07/30 07:29:19;;;;;;;5.53;5.00;;;;;;;29.92;38.02;97034.63;6240965;22;20179;-71
2022/07/30 07:31:47;;;;;;;7.07;4.87;;;;;;;30.29;37.25;97029.03;6242677;22;20259;-72
2022/07/30 07:34:35;;;;;;;7.73;5.93;;;;;;;30.28;36.96;97032.69;6266494;22;20252;-72
2022/07/30 07:37:02;;;;;;;6.90;5.30;;;;;;;30.26;36.45;97032.03;6242637;22;20211;-71
2022/07/30 07:39:29;;;;;;;5.13;4.43;;;;;;;29.46;36.38;97027.91;6269014;22;20635;-72
2022/07/30 07:41:58;;;;;;;4.83;4.37;;;;;;;29.42;36.22;96998.09;6216314;22;20171;-72
2022/07/30 07:44:28;;;;;;;7.37;5.50;;;;;;;29.74;36.31;97024.34;6267927;22;20184;-73
2022/07/30 07:46:55;;;;;;;6.13;4.77;;;;;;;29.75;35.58;97025.19;6265527;22;20638;-72
2022/07/30 07:49:26;;;;;;;3.87;3.50;;;;;;;29.74;34.09;97028.88;6266921;22;20175;-72
2022/07/30 07:51:53;;;;;;;4.67;3.50;;;;;;;29.58;34.30;97034.41;6265840;22;20168;-72
2022/07/30 07:54:22;;;;;;;4.40;4.03;;;;;;;29.43;36.06;97022.97;6292886;22;20655;-73
2022/07/30 07:56:54;;;;;;;6.00;4.70;;;;;;;29.89;35.50;97024.31;6268230;22;20187;-73
2022/07/30 07:59:51;;;;;;;4.90;4.40;;;;;;;29.90;36.57;97023.31;6260918;22;20200;-72
2022/07/30 08:02:25;;;;;;;5.80;4.03;;;;;;;29.62;36.17;97019.66;6267321;22;20164;-72
2022/07/30 08:05:04;;;;;;;4.40;4.00;;;;;;;29.55;37.09;97019.59;6265317;22;20657;-72
2022/07/30 08:07:50;;;;;;;6.90;4.40;;;;;;;30.25;35.56;97005.53;6266596;22;20230;-73
2022/07/30 08:10:36;;;;;;;7.37;4.43;;;;;;;30.70;34.09;97009.56;6268676;22;20691;-72
2022/07/30 08:13:24;;;;;;;7.50;5.10;;;;;;;31.13;33.40;97022.63;6290755;22;20165;-72
2022/07/30 08:16:29;;;;;;;4.77;3.17;;;;;;;30.38;32.08;97022.50;6267080;22;20164;-72
2022/07/30 08:19:22;;;;;;;3.60;3.30;;;;;;;30.58;33.30;97027.19;6233080;22;20557;-72
2022/07/30 08:22:06;;;;;;;12.13;8.10;;;;;;;30.69;33.06;97015.94;6265716;22;20203;-72
2022/07/30 08:24:33;;;;;;;8.90;5.73;;;;;;;30.29;33.91;97021.03;6268843;22;20165;-73
2022/07/30 08:27:00;;;;;;;5.30;4.80;;;;;;;30.14;33.43;97008.72;6266433;22;20196;-72
2022/07/30 08:29:28;;;;;;;5.30;3.83;;;;;;;30.14;33.21;96998.03;6267605;22;20626;-72
2022/07/30 08:31:59;;;;;;;3.73;3.30;;;;;;;30.14;32.66;97019.41;6267255;22;20240;-73
2022/07/30 08:34:27;;;;;;;3.30;3.00;;;;;;;30.48;31.22;97009.63;6265170;22;20244;-73
2022/07/30 08:36:56;;;;;;;3.70;3.30;;;;;;;30.92;31.35;97003.97;6292750;22;20160;-72
2022/07/30 08:39:24;;;;;;;6.27;3.53;;;;;;;31.27;31.51;97007.44;6239306;22;20200;-72
2022/07/30 08:41:51;;;;;;;5.07;3.80;;;;;;;31.37;31.28;96994.50;6292842;22;20185;-72
2022/07/30 08:44:20;;;;;;;4.32;3.40;;;;;;;31.46;31.13;96995.19;6291057;22;20188;-72
2022/07/30 08:46:54;;;;;;;4.80;3.07;;;;;;;31.42;30.24;96994.78;6292183;22;20214;-73
2022/07/30 08:50:05;;;;;;;4.80;3.57;;;;;;;30.53;31.47;96999.19;6264623;22;20191;-72
2022/07/30 08:52:35;;;;;;;3.80;3.50;;;;;;;30.75;32.02;96994.59;6240590;22;20238;-72
2022/07/30 08:55:05;;;;;;;5.67;3.90;;;;;;;30.89;32.31;96998.22;6242256;22;20183;-73
2022/07/30 08:58:12;;;;;;;7.50;4.83;;;;;;;30.87;31.55;96992.22;6242086;22;20220;-72
2022/07/30 09:01:33;;;;;;;4.40;3.93;;;;;;;30.73;32.59;96987.81;6265877;22;20176;-72
2022/07/30 09:04:55;;;;;;;3.53;3.23;;;;;;;31.36;32.01;96989.34;6269281;22;20164;-72
2022/07/30 09:08:15;;;;;;;10.07;6.77;;;;;;;30.98;32.69;96988.97;6267771;22;20168;-73
2022/07/30 09:10:57;;;;;;;3.75;3.28;;;;;;;31.23;32.22;96971.41;6267556;22;20169;-73
2022/07/30 09:13:26;;;;;;;7.07;4.23;;;;;;;31.56;31.77;96958.13;6267449;22;20167;-73
2022/07/30 09:15:56;;;;;;;7.67;4.07;;;;;;;31.97;32.05;96967.72;6243932;22;20199;-73
2022/07/30 09:18:31;;;;;;;6.77;5.17;;;;;;;32.06;32.40;96966.50;6216325;22;20203;-73
2022/07/30 09:21:16;;;;;;;5.38;4.88;;;;;;;32.42;31.92;96965.25;6268517;22;20202;-73
2022/07/30 09:24:00;;;;;;;6.47;3.88;;;;;;;32.63;31.39;96963.16;6268715;22;20597;-73
2022/07/30 09:27:00;;;;;;;8.98;6.03;;;;;;;31.95;31.42;96953.69;6268510;22;20675;-73
2022/07/30 09:29:57;;;;;;;8.10;4.25;;;;;;;31.61;31.54;96959.19;6270304;22;20267;-72
2022/07/30 09:32:59;;;;;;;4.83;3.57;;;;;;;31.79;31.25;96953.22;6206430;23;20178;-72
2022/07/30 09:36:06;;;;;;;4.30;3.83;;;;;;;32.10;31.67;96950.81;6268974;22;20175;-73
2022/07/30 09:39:05;;;;;;;4.60;4.13;;;;;;;31.49;31.40;96946.59;6216705;22;20191;-73
2022/07/30 09:41:53;;;;;;;5.32;3.97;;;;;;;31.73;31.73;96954.88;6270204;22;20175;-72
2022/07/30 09:44:25;;;;;;;6.03;3.28;;;;;;;31.58;31.18;96954.22;6293291;22;20508;-69
2022/07/30 09:46:56;;;;;;;4.80;3.83;;;;;;;31.73;31.03;96946.00;6243099;22;20176;-73
2022/07/30 09:49:27;;;;;;;3.90;3.60;;;;;;;31.82;30.80;96929.53;6267965;22;20230;-72
2022/07/30 09:51:56;;;;;;;4.78;3.72;;;;;;;31.80;30.06;96933.47;6267394;22;20161;-73
2022/07/30 09:54:46;;;;;;;5.53;3.63;;;;;;;31.51;32.20;96923.13;6242999;22;20172;-73
2022/07/30 09:57:19;;;;;;;7.07;5.35;;;;;;;31.37;30.98;96930.25;6241390;22;20580;-72
2022/07/30 10:00:22;;;;;;;6.53;4.35;;;;;;;31.27;31.16;96921.78;6267787;22;20207;-72
2022/07/30 10:03:17;;;;;;;8.90;3.70;;;;;;;31.53;31.47;96919.19;6240251;22;20172;-71
2022/07/30 10:06:31;;;;;;;7.55;3.83;;;;;;;31.86;30.83;96916.56;6268830;22;20690;-72
2022/07/30 10:09:00;;;;;;;4.32;3.53;;;;;;;32.15;30.48;96921.50;6268254;22;20571;-72
2022/07/30 10:11:40;;;;;;;5.30;3.88;;;;;;;31.89;30.64;96913.47;6269079;22;20164;-72
2022/07/30 10:14:08;;;;;;;5.10;3.65;;;;;;;32.18;30.24;96906.88;6266558;22;20650;-72
2022/07/30 10:16:35;;;;;;;5.38;3.78;;;;;;;31.87;29.69;96911.00;6268447;22;20652;-72
2022/07/30 10:19:04;;;;;;;5.10;3.30;;;;;;;31.40;30.45;96904.97;6241468;22;20304;-72
2022/07/30 10:22:13;;;;;;;9.90;5.10;;;;;;;31.79;29.87;96905.84;6216993;22;20176;-71
2022/07/30 10:24:47;;;;;;;4.05;3.65;;;;;;;31.81;29.72;96898.44;6270173;22;20191;-72
2022/07/30 10:27:33;;;;;;;3.40;3.10;;;;;;;31.92;29.18;96897.00;6266154;22;20197;-72
2022/07/30 10:30:06;;;;;;;5.45;3.50;;;;;;;32.20;28.91;96876.16;6293989;22;20569;-72
2022/07/30 10:32:39;;;;;;;3.40;3.05;;;;;;;31.86;29.09;96898.63;6269161;22;20168;-73
2022/07/30 10:35:08;;;;;;;3.63;3.30;;;;;;;31.52;30.10;96885.41;6268091;22;20168;-72
2022/07/30 10:37:39;;;;;;;4.35;3.35;;;;;;;31.81;29.64;96882.34;6242249;22;20662;-73
2022/07/30 10:40:23;;;;;;;5.57;3.73;;;;;;;31.87;30.32;96878.84;6265886;22;20519;-71
2022/07/30 10:43:18;;;;;;;4.38;3.97;;;;;;;32.28;29.75;96878.63;6269352;22;20686;-73
2022/07/30 10:46:12;;;;;;;10.73;5.40;;;;;;;32.24;28.54;96876.56;6269084;22;20165;-71
2022/07/30 10:48:49;;;;;;;4.40;3.55;;;;;;;32.65;29.64;96875.25;6268646;22;20169;-72
2022/07/30 10:51:16;;;;;;;4.65;3.35;;;;;;;32.69;29.20;96872.94;6270082;22;20160;-71
2022/07/30 10:53:51;;;;;;;3.60;3.28;;;;;;;32.37;28.48;96889.94;6268399;22;20184;-72
2022/07/30 10:56:20;;;;;;;3.15;2.92;;;;;;;31.94;28.77;96871.63;6269709;22;20523;-74
2022/07/30 10:59:10;;;;;;;4.65;3.50;;;;;;;32.35;28.90;96868.72;6269351;22;20718;-72
2022/07/30 11:01:46;;;;;;;4.28;3.55;;;;;;;32.80;28.46;96867.75;6239994;22;20224;-71
2022/07/30 11:04:27;;;;;;;3.70;3.33;;;;;;;32.47;27.88;96842.09;6270684;22;20504;-71
2022/07/30 11:07:20;;;;;;;9.38;7.07;;;;;;;32.69;27.83;96864.91;6268065;22;20222;-73
2022/07/30 11:09:52;;;;;;;11.93;10.77;;;;;;;33.13;27.54;96858.75;6268752;22;20185;-72
2022/07/30 11:12:40;;;;;;;6.65;3.40;;;;;;;33.45;27.46;96860.38;6269394;22;20268;-73
2022/07/30 11:15:14;;;;;;;5.55;3.60;;;;;;;33.50;27.30;96858.75;6268764;22;20171;-72
2022/07/30 11:18:07;;;;;;;4.75;3.33;;;;;;;33.20;27.56;96856.84;6269536;22;20218;-73
2022/07/30 11:20:39;;;;;;;4.10;3.58;;;;;;;33.05;26.62;96859.84;6269838;22;20188;-71
2022/07/30 11:23:17;;;;;;;3.45;3.15;;;;;;;32.59;27.75;96853.81;6267403;22;20554;-71
2022/07/30 11:25:46;;;;;;;4.00;2.83;;;;;;;32.47;28.03;96844.78;6269807;22;20171;-72
2022/07/30 11:28:41;;;;;;;4.00;3.60;;;;;;;32.51;27.19;96837.94;6267581;22;20171;-71
2022/07/30 11:31:27;;;;;;;4.75;3.60;;;;;;;32.81;26.79;96839.88;6268852;22;20169;-71
2022/07/30 11:34:17;;;;;;;3.88;3.53;;;;;;;33.06;26.93;96839.16;6269223;22;20164;-72
2022/07/30 11:37:07;;;;;;;4.43;3.40;;;;;;;32.90;28.31;96835.09;6267660;22;20164;-71
2022/07/30 11:39:54;;;;;;;3.53;3.13;;;;;;;32.81;26.87;96844.41;6267454;22;20506;-72
2022/07/30 11:42:29;;;;;;;5.03;3.50;;;;;;;32.70;26.83;96829.00;6293080;22;20166;-73
2022/07/30 11:45:14;;;;;;;3.90;3.47;;;;;;;32.50;28.26;96831.75;6267462;22;20635;-72
2022/07/30 11:47:50;;;;;;;4.95;3.65;;;;;;;32.71;28.10;96820.75;6269617;22;20161;-74
2022/07/30 11:50:18;;;;;;;4.65;3.47;;;;;;;33.19;28.27;96813.06;6268721;22;20160;-74
2022/07/30 11:52:53;;;;;;;4.32;3.92;;;;;;;32.83;28.25;96796.72;6268883;22;20596;-72
2022/07/30 11:55:24;;;;;;;4.63;3.30;;;;;;;33.18;27.57;96816.78;6270499;22;20164;-73
2022/07/30 11:57:52;;;;;;;5.28;3.72;;;;;;;33.14;27.66;96799.47;6267886;22;20230;-71
2022/07/30 12:00:19;;;;;;;3.75;3.45;;;;;;;33.29;27.42;96799.97;6269083;22;20192;-71
2022/07/30 12:02:48;;;;;;;3.75;3.45;;;;;;;33.40;27.09;96804.66;6266044;22;20227;-72
2022/07/30 12:05:24;;;;;;;3.45;2.95;;;;;;;33.24;26.29;96793.63;6269688;22;20161;-71
2022/07/30 12:07:58;;;;;;;6.38;3.50;;;;;;;33.14;27.71;96788.72;6268875;22;20588;-75
2022/07/30 12:10:25;;;;;;;4.45;3.40;;;;;;;33.02;27.98;96779.72;6268494;22;20538;-72